tititudorancea.com
Station Historical Data
Daily Summary for February 11, 2019 Units:  Both    English   Metric
« Previous Day
Next Day »
Daily Weekly Monthly Yearly Custom
  High: Low: Average:
Temperature: TemperatureF °F /  -17.8 °C 51.5 °F /  10.8 °C 63.6 °F /  17.6 °C
Dew Point: DewpointF °F /  -17.8 °C 49.3 °F /  9.6 °C 54.1 °F /  12.3 °C
Humidity: Humidity % 52 % 73 %
Wind Speed: WindSpeedMPH mph /  0 km/h - 8.4 mph /  13.5 km/h
Wind Gust: WindSpeedGustMPH mph /  0 km/h - -
Wind:- - WNW
Pressure: PressureIn in /  0 hPa 29.42 in /  996.2 hPa -
Precipitation: 0.00 in /  0 mm    
Historical Graphs
 
 
Ararat weather Find more about Weather in Ararat, AU


 



 


Tabular Data for February 11, 2019
Time Temperature Dew Point Pressure Wind Wind Speed Wind Gust Humidity Rainfall Rate (Hourly)
TemperatureF °F /  -17.8 °C DewpointF °F /  -17.8 °C PressureIn in /  0 hPa Calm     Humidity % HourlyPrecipIn in /  0 mm
00:04 59.7 °F /  15.4 °C 52.5 °F /  11.4 °C 29.72 in /  1006.3 hPa SW 2.3 mph /  3.7 km/h 1.3 mph /  2.1 km/h 77 % 0.00 in /  0 mm
00:09 59.5 °F /  15.3 °C 52.3 °F /  11.3 °C 29.72 in /  1006.3 hPa SW 1.2 mph /  1.9 km/h   77 % 0.00 in /  0 mm
00:14 59.4 °F /  15.2 °C 52.5 °F /  11.4 °C 29.72 in /  1006.3 hPa SW 2.3 mph /  3.7 km/h 1.2 mph /  1.9 km/h 78 % 0.00 in /  0 mm
00:19 59.2 °F /  15.1 °C 52.3 °F /  11.3 °C 29.72 in /  1006.3 hPa SW 2.3 mph /  3.7 km/h 0.3 mph /  0.5 km/h 78 % 0.00 in /  0 mm
00:24 59.1 °F /  15.1 °C 52.2 °F /  11.2 °C 29.72 in /  1006.3 hPa Calm     78 % 0.00 in /  0 mm
00:29 58.8 °F /  14.9 °C 52.0 °F /  11.1 °C 29.72 in /  1006.3 hPa Calm     78 % 0.00 in /  0 mm
00:34 58.6 °F /  14.8 °C 52.1 °F /  11.2 °C 29.72 in /  1006.3 hPa Calm     79 % 0.00 in /  0 mm
00:39 58.3 °F /  14.6 °C 51.8 °F /  11 °C 29.72 in /  1006.3 hPa Calm     79 % 0.00 in /  0 mm
00:44 58.1 °F /  14.5 °C 52.0 °F /  11.1 °C 29.72 in /  1006.3 hPa SW 2.0 mph /  3.2 km/h 1.4 mph /  2.3 km/h 80 % 0.00 in /  0 mm
00:49 57.9 °F /  14.4 °C 52.1 °F /  11.2 °C 29.72 in /  1006.3 hPa SW 2.3 mph /  3.7 km/h   81 % 0.00 in /  0 mm
00:54 57.7 °F /  14.3 °C 51.9 °F /  11.1 °C 29.72 in /  1006.3 hPa SW 2.3 mph /  3.7 km/h 0.6 mph /  1 km/h 81 % 0.00 in /  0 mm
00:59 57.6 °F /  14.2 °C 52.1 °F /  11.2 °C 29.72 in /  1006.3 hPa Calm     82 % 0.00 in /  0 mm
01:04 57.4 °F /  14.1 °C 51.9 °F /  11.1 °C 29.71 in /  1006 hPa Calm     82 % 0.00 in /  0 mm
01:09 57.2 °F /  14 °C 51.8 °F /  11 °C 29.71 in /  1006 hPa Calm     82 % 0.00 in /  0 mm
01:14 57.0 °F /  13.9 °C 51.9 °F /  11.1 °C 29.71 in /  1006 hPa Calm     83 % 0.00 in /  0 mm
01:19 56.8 °F /  13.8 °C 51.7 °F /  10.9 °C 29.71 in /  1006 hPa Calm     83 % 0.00 in /  0 mm
01:24 56.7 °F /  13.7 °C 51.6 °F /  10.9 °C 29.71 in /  1006 hPa Calm     83 % 0.00 in /  0 mm
01:29 56.6 °F /  13.7 °C 51.8 °F /  11 °C 29.71 in /  1006 hPa Calm     84 % 0.00 in /  0 mm
01:34 56.5 °F /  13.6 °C 51.7 °F /  10.9 °C 29.71 in /  1006 hPa Calm     84 % 0.00 in /  0 mm
01:39 56.3 °F /  13.5 °C 51.5 °F /  10.8 °C 29.71 in /  1006 hPa Calm     84 % 0.00 in /  0 mm
01:44 56.3 °F /  13.5 °C 51.8 °F /  11 °C 29.70 in /  1005.6 hPa SW 2.0 mph /  3.2 km/h 1.3 mph /  2.1 km/h 85 % 0.00 in /  0 mm
01:49 56.2 °F /  13.4 °C 51.7 °F /  10.9 °C 29.70 in /  1005.6 hPa SW 2.3 mph /  3.7 km/h 0.9 mph /  1.4 km/h 85 % 0.00 in /  0 mm
01:54 56.1 °F /  13.4 °C 51.7 °F /  10.9 °C 29.70 in /  1005.6 hPa Calm     85 % 0.00 in /  0 mm
01:59 55.8 °F /  13.2 °C 51.4 °F /  10.8 °C 29.69 in /  1005.3 hPa Calm     85 % 0.00 in /  0 mm
02:04 55.6 °F /  13.1 °C 51.5 °F /  10.8 °C 29.69 in /  1005.3 hPa SW 2.3 mph /  3.7 km/h 1.0 mph /  1.6 km/h 86 % 0.00 in /  0 mm
02:09 55.5 °F /  13.1 °C 51.4 °F /  10.8 °C 29.69 in /  1005.3 hPa SW 3.5 mph /  5.6 km/h 2.2 mph /  3.5 km/h 86 % 0.00 in /  0 mm
02:14 55.6 °F /  13.1 °C 51.8 °F /  11 °C 29.69 in /  1005.3 hPa SW 2.3 mph /  3.7 km/h 1.1 mph /  1.8 km/h 87 % 0.00 in /  0 mm
02:19 55.6 °F /  13.1 °C 51.5 °F /  10.8 °C 29.69 in /  1005.3 hPa SW 2.0 mph /  3.2 km/h 1.0 mph /  1.6 km/h 86 % 0.00 in /  0 mm
02:24 55.5 °F /  13.1 °C 51.4 °F /  10.8 °C 29.69 in /  1005.3 hPa Calm     86 % 0.00 in /  0 mm
02:29 55.4 °F /  13 °C 51.6 °F /  10.9 °C 29.68 in /  1005 hPa Calm     87 % 0.00 in /  0 mm
02:34 55.3 °F /  12.9 °C 51.5 °F /  10.8 °C 29.68 in /  1005 hPa Calm     87 % 0.00 in /  0 mm
02:39 55.4 °F /  13 °C 51.6 °F /  10.9 °C 29.68 in /  1005 hPa Calm     87 % 0.00 in /  0 mm
02:44 55.4 °F /  13 °C 51.6 °F /  10.9 °C 29.68 in /  1005 hPa Calm     87 % 0.00 in /  0 mm
02:49 55.3 °F /  12.9 °C 51.5 °F /  10.8 °C 29.67 in /  1004.6 hPa Calm     87 % 0.00 in /  0 mm
02:54 55.3 °F /  12.9 °C 51.5 °F /  10.8 °C 29.67 in /  1004.6 hPa SW 2.3 mph /  3.7 km/h 0.5 mph /  0.8 km/h 87 % 0.00 in /  0 mm
02:59 55.3 °F /  12.9 °C 51.8 °F /  11 °C 29.67 in /  1004.6 hPa Calm     88 % 0.00 in /  0 mm
03:04 55.2 °F /  12.9 °C 51.4 °F /  10.8 °C 29.67 in /  1004.6 hPa Calm     87 % 0.00 in /  0 mm
03:09 55.0 °F /  12.8 °C 51.5 °F /  10.8 °C 29.67 in /  1004.6 hPa Calm     88 % 0.00 in /  0 mm
03:14 54.9 °F /  12.7 °C 51.4 °F /  10.8 °C 29.67 in /  1004.6 hPa Calm     88 % 0.00 in /  0 mm
03:19 54.8 °F /  12.7 °C 51.3 °F /  10.7 °C 29.66 in /  1004.3 hPa SW 1.2 mph /  1.9 km/h 0.9 mph /  1.4 km/h 88 % 0.00 in /  0 mm
03:24 54.8 °F /  12.7 °C 51.3 °F /  10.7 °C 29.66 in /  1004.3 hPa Calm     88 % 0.00 in /  0 mm
03:29 54.8 °F /  12.7 °C 51.3 °F /  10.7 °C 29.66 in /  1004.3 hPa Calm     88 % 0.00 in /  0 mm
03:34 54.7 °F /  12.6 °C 51.5 °F /  10.8 °C 29.66 in /  1004.3 hPa Calm     89 % 0.00 in /  0 mm
03:39 54.6 °F /  12.6 °C 51.4 °F /  10.8 °C 29.66 in /  1004.3 hPa Calm     89 % 0.00 in /  0 mm
03:44 54.3 °F /  12.4 °C 51.1 °F /  10.6 °C 29.66 in /  1004.3 hPa Calm     89 % 0.00 in /  0 mm
03:49 54.3 °F /  12.4 °C 51.1 °F /  10.6 °C 29.66 in /  1004.3 hPa SW 1.0 mph /  1.6 km/h   89 % 0.00 in /  0 mm
03:54 54.4 °F /  12.4 °C 51.2 °F /  10.7 °C 29.66 in /  1004.3 hPa SW 2.3 mph /  3.7 km/h   89 % 0.00 in /  0 mm
03:59 54.4 °F /  12.4 °C 51.2 °F /  10.7 °C 29.65 in /  1003.9 hPa Calm     89 % 0.00 in /  0 mm
04:04 54.2 °F /  12.3 °C 51.0 °F /  10.6 °C 29.65 in /  1003.9 hPa Calm     89 % 0.00 in /  0 mm
04:09 54.0 °F /  12.2 °C 50.8 °F /  10.4 °C 29.65 in /  1003.9 hPa Calm     89 % 0.00 in /  0 mm
04:14 53.9 °F /  12.2 °C 50.7 °F /  10.4 °C 29.65 in /  1003.9 hPa Calm     89 % 0.00 in /  0 mm
04:19 53.9 °F /  12.2 °C 50.7 °F /  10.4 °C 29.65 in /  1003.9 hPa Calm     89 % 0.00 in /  0 mm
04:24 53.6 °F /  12 °C 50.7 °F /  10.4 °C 29.65 in /  1003.9 hPa SW 1.2 mph /  1.9 km/h   90 % 0.00 in /  0 mm
04:29 53.4 °F /  11.9 °C 50.5 °F /  10.3 °C 29.65 in /  1003.9 hPa Calm     90 % 0.00 in /  0 mm
04:34 53.4 °F /  11.9 °C 50.5 °F /  10.3 °C 29.66 in /  1004.3 hPa Calm     90 % 0.00 in /  0 mm
04:39 53.4 °F /  11.9 °C 50.5 °F /  10.3 °C 29.65 in /  1003.9 hPa Calm     90 % 0.00 in /  0 mm
04:44 53.3 °F /  11.8 °C 50.4 °F /  10.2 °C 29.65 in /  1003.9 hPa Calm     90 % 0.00 in /  0 mm
04:49 53.1 °F /  11.7 °C 50.2 °F /  10.1 °C 29.65 in /  1003.9 hPa Calm     90 % 0.00 in /  0 mm
04:54 53.0 °F /  11.7 °C 50.4 °F /  10.2 °C 29.64 in /  1003.6 hPa Calm     91 % 0.00 in /  0 mm
04:59 53.0 °F /  11.7 °C 50.4 °F /  10.2 °C 29.64 in /  1003.6 hPa Calm     91 % 0.00 in /  0 mm
05:04 52.8 °F /  11.6 °C 49.9 °F /  9.9 °C 29.65 in /  1003.9 hPa Calm     90 % 0.00 in /  0 mm
05:09 52.7 °F /  11.5 °C 49.8 °F /  9.9 °C 29.65 in /  1003.9 hPa Calm     90 % 0.00 in /  0 mm
05:14 52.7 °F /  11.5 °C 50.1 °F /  10.1 °C 29.64 in /  1003.6 hPa SW 1.0 mph /  1.6 km/h 1.2 mph /  1.9 km/h 91 % 0.00 in /  0 mm
05:19 52.7 °F /  11.5 °C 50.1 °F /  10.1 °C 29.65 in /  1003.9 hPa Calm     91 % 0.00 in /  0 mm
05:24 52.6 °F /  11.4 °C 50.0 °F /  10 °C 29.64 in /  1003.6 hPa Calm     91 % 0.00 in /  0 mm
05:29 52.6 °F /  11.4 °C 50.0 °F /  10 °C 29.64 in /  1003.6 hPa Calm     91 % 0.00 in /  0 mm
05:34 52.5 °F /  11.4 °C 49.9 °F /  9.9 °C 29.64 in /  1003.6 hPa Calm     91 % 0.00 in /  0 mm
05:39 52.3 °F /  11.3 °C 49.8 °F /  9.9 °C 29.64 in /  1003.6 hPa Calm     91 % 0.00 in /  0 mm
05:44 52.2 °F /  11.2 °C 49.7 °F /  9.8 °C 29.64 in /  1003.6 hPa Calm     91 % 0.00 in /  0 mm
05:49 52.0 °F /  11.1 °C 49.5 °F /  9.7 °C 29.64 in /  1003.6 hPa Calm     91 % 0.00 in /  0 mm
05:54 52.0 °F /  11.1 °C 49.7 °F /  9.8 °C 29.64 in /  1003.6 hPa Calm     92 % 0.00 in /  0 mm
05:59 51.9 °F /  11.1 °C 49.6 °F /  9.8 °C 29.64 in /  1003.6 hPa SW 3.5 mph /  5.6 km/h 0.9 mph /  1.4 km/h 92 % 0.00 in /  0 mm
06:04 51.8 °F /  11 °C 49.5 °F /  9.7 °C 29.64 in /  1003.6 hPa Calm     92 % 0.00 in /  0 mm
06:09 51.8 °F /  11 °C 49.5 °F /  9.7 °C 29.64 in /  1003.6 hPa Calm     92 % 0.00 in /  0 mm
06:14 51.7 °F /  10.9 °C 49.5 °F /  9.7 °C 29.64 in /  1003.6 hPa Calm     92 % 0.00 in /  0 mm
06:19 51.7 °F /  10.9 °C 49.5 °F /  9.7 °C 29.65 in /  1003.9 hPa SW 2.0 mph /  3.2 km/h 0.6 mph /  1 km/h 92 % 0.00 in /  0 mm
06:24 51.7 °F /  10.9 °C 49.5 °F /  9.7 °C 29.64 in /  1003.6 hPa Calm     92 % 0.00 in /  0 mm
06:29 51.6 °F /  10.9 °C 49.4 °F /  9.7 °C 29.65 in /  1003.9 hPa SW 2.3 mph /  3.7 km/h 0.4 mph /  0.6 km/h 92 % 0.00 in /  0 mm
06:34 51.7 °F /  10.9 °C 49.5 °F /  9.7 °C 29.65 in /  1003.9 hPa Calm     92 % 0.00 in /  0 mm
06:39 51.6 °F /  10.9 °C 49.4 °F /  9.7 °C 29.65 in /  1003.9 hPa Calm     92 % 0.00 in /  0 mm
06:44 51.5 °F /  10.8 °C 49.3 °F /  9.6 °C 29.65 in /  1003.9 hPa Calm     92 % 0.00 in /  0 mm
06:49 51.5 °F /  10.8 °C 49.5 °F /  9.7 °C 29.65 in /  1003.9 hPa SW 3.5 mph /  5.6 km/h 2.2 mph /  3.5 km/h 93 % 0.00 in /  0 mm
06:54 51.7 °F /  10.9 °C 49.7 °F /  9.8 °C 29.65 in /  1003.9 hPa Calm     93 % 0.00 in /  0 mm
06:59 51.7 °F /  10.9 °C 49.7 °F /  9.8 °C 29.65 in /  1003.9 hPa Calm     93 % 0.00 in /  0 mm
07:04 51.9 °F /  11.1 °C 49.9 °F /  9.9 °C 29.65 in /  1003.9 hPa Calm     93 % 0.00 in /  0 mm
07:09 52.2 °F /  11.2 °C 50.5 °F /  10.3 °C 29.65 in /  1003.9 hPa Calm     94 % 0.00 in /  0 mm
07:14 52.2 °F /  11.2 °C 50.2 °F /  10.1 °C 29.65 in /  1003.9 hPa Calm     93 % 0.00 in /  0 mm
07:19 52.3 °F /  11.3 °C 50.3 °F /  10.2 °C 29.65 in /  1003.9 hPa Calm     93 % 0.00 in /  0 mm
07:24 52.3 °F /  11.3 °C 50.3 °F /  10.2 °C 29.65 in /  1003.9 hPa Calm     93 % 0.00 in /  0 mm
07:29 52.4 °F /  11.3 °C 50.4 °F /  10.2 °C 29.65 in /  1003.9 hPa Calm     93 % 0.00 in /  0 mm
07:34 52.7 °F /  11.5 °C 51.0 °F /  10.6 °C 29.65 in /  1003.9 hPa SW 3.5 mph /  5.6 km/h 1.4 mph /  2.3 km/h 94 % 0.00 in /  0 mm
07:39 53.0 °F /  11.7 °C 51.3 °F /  10.7 °C 29.65 in /  1003.9 hPa SW 1.2 mph /  1.9 km/h 0.7 mph /  1.1 km/h 94 % 0.00 in /  0 mm
07:44 53.2 °F /  11.8 °C 51.5 °F /  10.8 °C 29.65 in /  1003.9 hPa SW 3.5 mph /  5.6 km/h 1.9 mph /  3.1 km/h 94 % 0.00 in /  0 mm
07:49 53.4 °F /  11.9 °C 51.7 °F /  10.9 °C 29.65 in /  1003.9 hPa SW 3.5 mph /  5.6 km/h 2.3 mph /  3.7 km/h 94 % 0.00 in /  0 mm
07:54 53.6 °F /  12 °C 51.9 °F /  11.1 °C 29.65 in /  1003.9 hPa SW 3.5 mph /  5.6 km/h 2.1 mph /  3.4 km/h 94 % 0.00 in /  0 mm
07:59 53.8 °F /  12.1 °C 51.8 °F /  11 °C 29.65 in /  1003.9 hPa SW 3.5 mph /  5.6 km/h 2.6 mph /  4.2 km/h 93 % 0.00 in /  0 mm
08:04 54.3 °F /  12.4 °C 52.6 °F /  11.4 °C 29.64 in /  1003.6 hPa SW 5.8 mph /  9.3 km/h 4.1 mph /  6.6 km/h 94 % 0.00 in /  0 mm
08:09 55.0 °F /  12.8 °C 53.0 °F /  11.7 °C 29.64 in /  1003.6 hPa SW 5.0 mph /  8 km/h 4.6 mph /  7.4 km/h 93 % 0.00 in /  0 mm
08:14 55.6 °F /  13.1 °C 53.6 °F /  12 °C 29.64 in /  1003.6 hPa SW 5.8 mph /  9.3 km/h 3.7 mph /  6 km/h 93 % 0.00 in /  0 mm
08:19 56.3 °F /  13.5 °C 54.3 °F /  12.4 °C 29.64 in /  1003.6 hPa SW 2.0 mph /  3.2 km/h 0.7 mph /  1.1 km/h 93 % 0.00 in /  0 mm
08:24 57.1 °F /  13.9 °C 54.8 °F /  12.7 °C 29.64 in /  1003.6 hPa SW 4.0 mph /  6.4 km/h 1.9 mph /  3.1 km/h 92 % 0.00 in /  0 mm
08:29 57.9 °F /  14.4 °C 55.0 °F /  12.8 °C 29.63 in /  1003.3 hPa SW 6.0 mph /  9.7 km/h 2.4 mph /  3.9 km/h 90 % 0.00 in /  0 mm
08:34 58.5 °F /  14.7 °C 55.3 °F /  12.9 °C 29.63 in /  1003.3 hPa West 6.9 mph /  11.1 km/h 4.9 mph /  7.9 km/h 89 % 0.00 in /  0 mm
08:39 59.2 °F /  15.1 °C 55.3 °F /  12.9 °C 29.64 in /  1003.6 hPa West 6.9 mph /  11.1 km/h 3.2 mph /  5.1 km/h 87 % 0.00 in /  0 mm
08:44 59.8 °F /  15.4 °C 55.3 °F /  12.9 °C 29.64 in /  1003.6 hPa West 5.8 mph /  9.3 km/h 5.8 mph /  9.3 km/h 85 % 0.00 in /  0 mm
08:49 60.6 °F /  15.9 °C 55.7 °F /  13.2 °C 29.64 in /  1003.6 hPa West 7.0 mph /  11.3 km/h 2.9 mph /  4.7 km/h 84 % 0.00 in /  0 mm
08:54 61.1 °F /  16.2 °C 55.2 °F /  12.9 °C 29.64 in /  1003.6 hPa WNW 6.0 mph /  9.7 km/h 5.4 mph /  8.7 km/h 81 % 0.00 in /  0 mm
08:59 61.4 °F /  16.3 °C 55.2 °F /  12.9 °C 29.64 in /  1003.6 hPa North 10.4 mph /  16.7 km/h 4.4 mph /  7.1 km/h 80 % 0.00 in /  0 mm
09:04 61.5 °F /  16.4 °C 54.9 °F /  12.7 °C 29.64 in /  1003.6 hPa NW 9.2 mph /  14.8 km/h 6.4 mph /  10.3 km/h 79 % 0.00 in /  0 mm
09:09 61.8 °F /  16.6 °C 55.2 °F /  12.9 °C 29.64 in /  1003.6 hPa NNW 9.2 mph /  14.8 km/h 5.6 mph /  9 km/h 79 % 0.00 in /  0 mm
09:14 62.1 °F /  16.7 °C 55.2 °F /  12.9 °C 29.64 in /  1003.6 hPa NNW 6.9 mph /  11.1 km/h 7.4 mph /  11.9 km/h 78 % 0.00 in /  0 mm
09:19 62.5 °F /  16.9 °C 55.5 °F /  13.1 °C 29.64 in /  1003.6 hPa NNW 10.4 mph /  16.7 km/h 6.6 mph /  10.6 km/h 78 % 0.00 in /  0 mm
09:24 62.9 °F /  17.2 °C 55.9 °F /  13.3 °C 29.64 in /  1003.6 hPa NNW 6.0 mph /  9.7 km/h 7.4 mph /  11.9 km/h 78 % 0.00 in /  0 mm
09:29 63.1 °F /  17.3 °C 55.8 °F /  13.2 °C 29.63 in /  1003.3 hPa NW 10.0 mph /  16.1 km/h 9.1 mph /  14.6 km/h 77 % 0.00 in /  0 mm
09:34 63.0 °F /  17.2 °C 55.7 °F /  13.2 °C 29.63 in /  1003.3 hPa NW 15.0 mph /  24.1 km/h 8.9 mph /  14.3 km/h 77 % 0.00 in /  0 mm
09:39 63.0 °F /  17.2 °C 55.7 °F /  13.2 °C 29.63 in /  1003.3 hPa NNW 12.7 mph /  20.4 km/h 9.9 mph /  15.9 km/h 77 % 0.00 in /  0 mm
09:44 63.4 °F /  17.4 °C 55.7 °F /  13.2 °C 29.63 in /  1003.3 hPa NW 13.8 mph /  22.2 km/h 10.5 mph /  16.9 km/h 76 % 0.00 in /  0 mm
09:49 63.3 °F /  17.4 °C 55.2 °F /  12.9 °C 29.63 in /  1003.3 hPa NW 11.5 mph /  18.5 km/h 4.7 mph /  7.6 km/h 75 % 0.00 in /  0 mm
09:54 63.9 °F /  17.7 °C 56.2 °F /  13.4 °C 29.63 in /  1003.3 hPa NW 11.5 mph /  18.5 km/h 8.0 mph /  12.9 km/h 76 % 0.00 in /  0 mm
09:59 64.5 °F /  18.1 °C 55.7 °F /  13.2 °C 29.63 in /  1003.3 hPa NW 13.8 mph /  22.2 km/h 10.3 mph /  16.6 km/h 73 % 0.00 in /  0 mm
10:04 64.4 °F /  18 °C 55.6 °F /  13.1 °C 29.63 in /  1003.3 hPa NW 12.7 mph /  20.4 km/h 12.5 mph /  20.1 km/h 73 % 0.00 in /  0 mm
10:09 64.2 °F /  17.9 °C 55.7 °F /  13.2 °C 29.63 in /  1003.3 hPa NW 12.7 mph /  20.4 km/h 8.8 mph /  14.2 km/h 74 % 0.00 in /  0 mm
10:14 64.4 °F /  18 °C 55.9 °F /  13.3 °C 29.63 in /  1003.3 hPa NW 6.9 mph /  11.1 km/h 5.7 mph /  9.2 km/h 74 % 0.00 in /  0 mm
10:19 64.3 °F /  17.9 °C 55.8 °F /  13.2 °C 29.63 in /  1003.3 hPa NW 8.1 mph /  13 km/h 4.3 mph /  6.9 km/h 74 % 0.00 in /  0 mm
10:24 64.4 °F /  18 °C 55.9 °F /  13.3 °C 29.62 in /  1002.9 hPa WNW 8.1 mph /  13 km/h 6.1 mph /  9.8 km/h 74 % 0.00 in /  0 mm
10:29 64.5 °F /  18.1 °C 56.0 °F /  13.3 °C 29.63 in /  1003.3 hPa NNW 8.1 mph /  13 km/h 4.6 mph /  7.4 km/h 74 % 0.00 in /  0 mm
10:34 65.6 °F /  18.7 °C 56.7 °F /  13.7 °C 29.63 in /  1003.3 hPa WNW 11.5 mph /  18.5 km/h 10.1 mph /  16.3 km/h 73 % 0.00 in /  0 mm
10:39 65.5 °F /  18.6 °C 56.2 °F /  13.4 °C 29.63 in /  1003.3 hPa NW 11.5 mph /  18.5 km/h 7.0 mph /  11.3 km/h 72 % 0.00 in /  0 mm
10:44 65.6 °F /  18.7 °C 56.3 °F /  13.5 °C 29.62 in /  1002.9 hPa NNW 11.5 mph /  18.5 km/h 8.9 mph /  14.3 km/h 72 % 0.00 in /  0 mm
10:49 65.8 °F /  18.8 °C 56.5 °F /  13.6 °C 29.62 in /  1002.9 hPa NW 5.8 mph /  9.3 km/h 3.5 mph /  5.6 km/h 72 % 0.00 in /  0 mm
10:54 66.1 °F /  18.9 °C 56.8 °F /  13.8 °C 29.62 in /  1002.9 hPa NW 9.2 mph /  14.8 km/h 6.8 mph /  10.9 km/h 72 % 0.00 in /  0 mm
10:59 65.5 °F /  18.6 °C 56.2 °F /  13.4 °C 29.62 in /  1002.9 hPa WNW 15.0 mph /  24.1 km/h 10.5 mph /  16.9 km/h 72 % 0.00 in /  0 mm
11:04 65.3 °F /  18.5 °C 56.4 °F /  13.6 °C 29.62 in /  1002.9 hPa NNW 13.8 mph /  22.2 km/h 7.1 mph /  11.4 km/h 73 % 0.00 in /  0 mm
11:09 65.7 °F /  18.7 °C 56.8 °F /  13.8 °C 29.62 in /  1002.9 hPa NNW 6.9 mph /  11.1 km/h 5.0 mph /  8 km/h 73 % 0.00 in /  0 mm
11:14 65.8 °F /  18.8 °C 56.5 °F /  13.6 °C 29.61 in /  1002.6 hPa NW 13.0 mph /  20.9 km/h 8.2 mph /  13.2 km/h 72 % 0.00 in /  0 mm
11:19 65.6 °F /  18.7 °C 56.3 °F /  13.5 °C 29.62 in /  1002.9 hPa NW 17.3 mph /  27.8 km/h 9.4 mph /  15.1 km/h 72 % 0.00 in /  0 mm
11:24 65.6 °F /  18.7 °C 56.3 °F /  13.5 °C 29.61 in /  1002.6 hPa NNW 13.8 mph /  22.2 km/h 8.6 mph /  13.8 km/h 72 % 0.00 in /  0 mm
11:29 65.9 °F /  18.8 °C 56.2 °F /  13.4 °C 29.61 in /  1002.6 hPa NNW 12.7 mph /  20.4 km/h 8.3 mph /  13.4 km/h 71 % 0.00 in /  0 mm
11:34 66.0 °F /  18.9 °C 56.7 °F /  13.7 °C 29.61 in /  1002.6 hPa NNW 11.5 mph /  18.5 km/h 9.7 mph /  15.6 km/h 72 % 0.00 in /  0 mm
11:39 66.3 °F /  19.1 °C 56.6 °F /  13.7 °C 29.61 in /  1002.6 hPa NW 10.4 mph /  16.7 km/h 7.2 mph /  11.6 km/h 71 % 0.00 in /  0 mm
11:44 66.9 °F /  19.4 °C 57.2 °F /  14 °C 29.61 in /  1002.6 hPa North 11.0 mph /  17.7 km/h 7.9 mph /  12.7 km/h 71 % 0.00 in /  0 mm
11:49 66.9 °F /  19.4 °C 57.2 °F /  14 °C 29.61 in /  1002.6 hPa NNW 11.5 mph /  18.5 km/h 6.0 mph /  9.7 km/h 71 % 0.00 in /  0 mm
11:54 66.9 °F /  19.4 °C 57.2 °F /  14 °C 29.60 in /  1002.3 hPa NW 11.5 mph /  18.5 km/h 7.3 mph /  11.7 km/h 71 % 0.00 in /  0 mm
11:59 67.6 °F /  19.8 °C 57.9 °F /  14.4 °C 29.60 in /  1002.3 hPa WNW 8.1 mph /  13 km/h 8.4 mph /  13.5 km/h 71 % 0.00 in /  0 mm
12:04 67.6 °F /  19.8 °C 56.2 °F /  13.4 °C 29.60 in /  1002.3 hPa NW 11.5 mph /  18.5 km/h 10.6 mph /  17.1 km/h 67 % 0.00 in /  0 mm
12:09 67.1 °F /  19.5 °C 56.2 °F /  13.4 °C 29.60 in /  1002.3 hPa WNW 11.5 mph /  18.5 km/h 7.3 mph /  11.7 km/h 68 % 0.00 in /  0 mm
12:14 67.0 °F /  19.4 °C 56.1 °F /  13.4 °C 29.60 in /  1002.3 hPa NNW 16.1 mph /  25.9 km/h 10.7 mph /  17.2 km/h 68 % 0.00 in /  0 mm
12:19 67.1 °F /  19.5 °C 56.2 °F /  13.4 °C 29.59 in /  1001.9 hPa NNW 13.8 mph /  22.2 km/h 8.5 mph /  13.7 km/h 68 % 0.00 in /  0 mm
12:24 67.2 °F /  19.6 °C 56.3 °F /  13.5 °C 29.59 in /  1001.9 hPa NW 11.0 mph /  17.7 km/h 7.9 mph /  12.7 km/h 68 % 0.00 in /  0 mm
12:29 67.2 °F /  19.6 °C 56.7 °F /  13.7 °C 29.58 in /  1001.6 hPa NW 9.2 mph /  14.8 km/h 7.3 mph /  11.7 km/h 69 % 0.00 in /  0 mm
12:34 67.3 °F /  19.6 °C 56.8 °F /  13.8 °C 29.59 in /  1001.9 hPa NNW 9.0 mph /  14.5 km/h 6.4 mph /  10.3 km/h 69 % 0.00 in /  0 mm
12:39 67.4 °F /  19.7 °C 56.5 °F /  13.6 °C 29.58 in /  1001.6 hPa WNW 10.4 mph /  16.7 km/h 10.1 mph /  16.3 km/h 68 % 0.00 in /  0 mm
12:44 67.7 °F /  19.8 °C 56.8 °F /  13.8 °C 29.58 in /  1001.6 hPa NW 13.0 mph /  20.9 km/h 11.0 mph /  17.7 km/h 68 % 0.00 in /  0 mm
12:49 67.8 °F /  19.9 °C 56.9 °F /  13.8 °C 29.58 in /  1001.6 hPa NW 13.8 mph /  22.2 km/h 7.1 mph /  11.4 km/h 68 % 0.00 in /  0 mm
12:54 68.1 °F /  20.1 °C 57.5 °F /  14.2 °C 29.58 in /  1001.6 hPa North 12.7 mph /  20.4 km/h 7.7 mph /  12.4 km/h 69 % 0.00 in /  0 mm
12:59 68.0 °F /  20 °C 57.0 °F /  13.9 °C 29.58 in /  1001.6 hPa NNW 17.3 mph /  27.8 km/h 10.3 mph /  16.6 km/h 68 % 0.00 in /  0 mm
13:04 68.0 °F /  20 °C 57.4 °F /  14.1 °C 29.57 in /  1001.2 hPa NW 13.0 mph /  20.9 km/h 10.1 mph /  16.3 km/h 69 % 0.00 in /  0 mm
13:09 68.5 °F /  20.3 °C 57.5 °F /  14.2 °C 29.57 in /  1001.2 hPa NNW 9.2 mph /  14.8 km/h 7.4 mph /  11.9 km/h 68 % 0.00 in /  0 mm
13:14 68.9 °F /  20.5 °C 57.1 °F /  13.9 °C 29.57 in /  1001.2 hPa NW 15.0 mph /  24.1 km/h 8.7 mph /  14 km/h 66 % 0.00 in /  0 mm
13:19 69.2 °F /  20.7 °C 56.9 °F /  13.8 °C 29.57 in /  1001.2 hPa North 16.1 mph /  25.9 km/h 7.5 mph /  12.1 km/h 65 % 0.00 in /  0 mm
13:24 69.3 °F /  20.7 °C 57.0 °F /  13.9 °C 29.56 in /  1000.9 hPa NW 9.2 mph /  14.8 km/h 6.7 mph /  10.8 km/h 65 % 0.00 in /  0 mm
13:29 69.6 °F /  20.9 °C 56.9 °F /  13.8 °C 29.56 in /  1000.9 hPa NNW 12.7 mph /  20.4 km/h 9.4 mph /  15.1 km/h 64 % 0.00 in /  0 mm
13:34 69.3 °F /  20.7 °C 56.6 °F /  13.7 °C 29.56 in /  1000.9 hPa NW 11.5 mph /  18.5 km/h 6.5 mph /  10.5 km/h 64 % 0.00 in /  0 mm
13:39 69.4 °F /  20.8 °C 56.7 °F /  13.7 °C 29.55 in /  1000.6 hPa NW 9.2 mph /  14.8 km/h 5.6 mph /  9 km/h 64 % 0.00 in /  0 mm
13:44 69.2 °F /  20.7 °C 56.5 °F /  13.6 °C 29.55 in /  1000.6 hPa WNW 15.0 mph /  24.1 km/h 11.8 mph /  19 km/h 64 % 0.00 in /  0 mm
13:49 69.4 °F /  20.8 °C 56.3 °F /  13.5 °C 29.55 in /  1000.6 hPa NW 16.0 mph /  25.7 km/h 14.2 mph /  22.9 km/h 63 % 0.00 in /  0 mm
13:54 69.6 °F /  20.9 °C 56.9 °F /  13.8 °C 29.55 in /  1000.6 hPa WNW 9.2 mph /  14.8 km/h 5.3 mph /  8.5 km/h 64 % 0.00 in /  0 mm
13:59 70.0 °F /  21.1 °C 56.4 °F /  13.6 °C 29.55 in /  1000.6 hPa NW 13.8 mph /  22.2 km/h 9.6 mph /  15.4 km/h 62 % 0.00 in /  0 mm
14:04 70.3 °F /  21.3 °C 56.7 °F /  13.7 °C 29.55 in /  1000.6 hPa North 12.7 mph /  20.4 km/h 5.7 mph /  9.2 km/h 62 % 0.00 in /  0 mm
14:09 70.6 °F /  21.4 °C 56.9 °F /  13.8 °C 29.54 in /  1000.2 hPa North 10.4 mph /  16.7 km/h 3.1 mph /  5 km/h 62 % 0.00 in /  0 mm
14:14 70.7 °F /  21.5 °C 56.6 °F /  13.7 °C 29.54 in /  1000.2 hPa NW 9.0 mph /  14.5 km/h 7.6 mph /  12.2 km/h 61 % 0.00 in /  0 mm
14:19 70.9 °F /  21.6 °C 56.3 °F /  13.5 °C 29.54 in /  1000.2 hPa NW 13.8 mph /  22.2 km/h 11.1 mph /  17.9 km/h 60 % 0.00 in /  0 mm
14:24 70.8 °F /  21.6 °C 56.2 °F /  13.4 °C 29.54 in /  1000.2 hPa WNW 11.0 mph /  17.7 km/h 6.8 mph /  10.9 km/h 60 % 0.00 in /  0 mm
14:29 70.8 °F /  21.6 °C 56.2 °F /  13.4 °C 29.54 in /  1000.2 hPa NW 12.7 mph /  20.4 km/h 9.9 mph /  15.9 km/h 60 % 0.00 in /  0 mm
14:34 70.6 °F /  21.4 °C 56.0 °F /  13.3 °C 29.54 in /  1000.2 hPa WNW 13.8 mph /  22.2 km/h 8.9 mph /  14.3 km/h 60 % 0.00 in /  0 mm
14:39 70.5 °F /  21.4 °C 55.9 °F /  13.3 °C 29.54 in /  1000.2 hPa WNW 12.0 mph /  19.3 km/h 9.9 mph /  15.9 km/h 60 % 0.00 in /  0 mm
14:44 70.5 °F /  21.4 °C 56.4 °F /  13.6 °C 29.54 in /  1000.2 hPa NNW 11.5 mph /  18.5 km/h 8.1 mph /  13 km/h 61 % 0.00 in /  0 mm
14:49 70.5 °F /  21.4 °C 55.9 °F /  13.3 °C 29.54 in /  1000.2 hPa NW 15.0 mph /  24.1 km/h 10.0 mph /  16.1 km/h 60 % 0.00 in /  0 mm
14:54 70.4 °F /  21.3 °C 56.3 °F /  13.5 °C 29.53 in /  999.9 hPa North 11.5 mph /  18.5 km/h 9.1 mph /  14.6 km/h 61 % 0.00 in /  0 mm
14:59 70.9 °F /  21.6 °C 56.8 °F /  13.8 °C 29.53 in /  999.9 hPa WNW 12.7 mph /  20.4 km/h 8.8 mph /  14.2 km/h 61 % 0.00 in /  0 mm
15:04 71.1 °F /  21.7 °C 56.5 °F /  13.6 °C 29.53 in /  999.9 hPa WNW 12.7 mph /  20.4 km/h 8.5 mph /  13.7 km/h 60 % 0.00 in /  0 mm
15:09 71.0 °F /  21.7 °C 56.9 °F /  13.8 °C 29.52 in /  999.5 hPa WNW 13.8 mph /  22.2 km/h 7.9 mph /  12.7 km/h 61 % 0.00 in /  0 mm
15:14 71.4 °F /  21.9 °C 56.3 °F /  13.5 °C 29.52 in /  999.5 hPa NNW 13.8 mph /  22.2 km/h 10.2 mph /  16.4 km/h 59 % 0.00 in /  0 mm
15:19 71.8 °F /  22.1 °C 57.2 °F /  14 °C 29.52 in /  999.5 hPa NW 18.4 mph /  29.6 km/h 8.8 mph /  14.2 km/h 60 % 0.00 in /  0 mm
15:24 72.5 °F /  22.5 °C 56.4 °F /  13.6 °C 29.52 in /  999.5 hPa WNW 18.4 mph /  29.6 km/h 8.7 mph /  14 km/h 57 % 0.00 in /  0 mm
15:29 72.8 °F /  22.7 °C 56.7 °F /  13.7 °C 29.52 in /  999.5 hPa NNW 16.1 mph /  25.9 km/h 11.3 mph /  18.2 km/h 57 % 0.00 in /  0 mm
15:34 72.3 °F /  22.4 °C 56.7 °F /  13.7 °C 29.51 in /  999.2 hPa WNW 15.0 mph /  24.1 km/h 10.3 mph /  16.6 km/h 58 % 0.00 in /  0 mm
15:39 73.3 °F /  22.9 °C 57.6 °F /  14.2 °C 29.51 in /  999.2 hPa NW 12.7 mph /  20.4 km/h 7.8 mph /  12.6 km/h 58 % 0.00 in /  0 mm
15:44 74.1 °F /  23.4 °C 57.4 °F /  14.1 °C 29.51 in /  999.2 hPa NW 18.0 mph /  29 km/h 9.5 mph /  15.3 km/h 56 % 0.00 in /  0 mm
15:49 73.2 °F /  22.9 °C 57.1 °F /  13.9 °C 29.51 in /  999.2 hPa NW 15.0 mph /  24.1 km/h 14.0 mph /  22.5 km/h 57 % 0.00 in /  0 mm
15:54 72.8 °F /  22.7 °C 56.7 °F /  13.7 °C 29.50 in /  998.9 hPa NW 13.8 mph /  22.2 km/h 10.2 mph /  16.4 km/h 57 % 0.00 in /  0 mm
15:59 72.6 °F /  22.6 °C 57.4 °F /  14.1 °C 29.50 in /  998.9 hPa NNW 11.5 mph /  18.5 km/h 7.9 mph /  12.7 km/h 59 % 0.00 in /  0 mm
16:04 73.3 °F /  22.9 °C 57.6 °F /  14.2 °C 29.50 in /  998.9 hPa North 17.0 mph /  27.4 km/h 9.9 mph /  15.9 km/h 58 % 0.00 in /  0 mm
16:09 73.8 °F /  23.2 °C 57.6 °F /  14.2 °C 29.50 in /  998.9 hPa NW 17.3 mph /  27.8 km/h 9.4 mph /  15.1 km/h 57 % 0.00 in /  0 mm
16:14 73.7 °F /  23.2 °C 57.5 °F /  14.2 °C 29.50 in /  998.9 hPa North 16.0 mph /  25.7 km/h 11.5 mph /  18.5 km/h 57 % 0.00 in /  0 mm
16:19 72.8 °F /  22.7 °C 57.2 °F /  14 °C 29.50 in /  998.9 hPa NW 16.1 mph /  25.9 km/h 12.5 mph /  20.1 km/h 58 % 0.00 in /  0 mm
16:24 72.6 °F /  22.6 °C 57.4 °F /  14.1 °C 29.50 in /  998.9 hPa NW 17.3 mph /  27.8 km/h 11.0 mph /  17.7 km/h 59 % 0.00 in /  0 mm
16:29 72.3 °F /  22.4 °C 57.6 °F /  14.2 °C 29.49 in /  998.5 hPa NW 15.0 mph /  24.1 km/h 10.1 mph /  16.3 km/h 60 % 0.00 in /  0 mm
16:34 72.7 °F /  22.6 °C 58.0 °F /  14.4 °C 29.49 in /  998.5 hPa NW 15.0 mph /  24.1 km/h 8.7 mph /  14 km/h 60 % 0.00 in /  0 mm
16:39 73.2 °F /  22.9 °C 57.5 °F /  14.2 °C 29.49 in /  998.5 hPa NW 13.0 mph /  20.9 km/h 11.1 mph /  17.9 km/h 58 % 0.00 in /  0 mm
16:44 73.4 °F /  23 °C 57.7 °F /  14.3 °C 29.48 in /  998.2 hPa NW 16.1 mph /  25.9 km/h 8.8 mph /  14.2 km/h 58 % 0.00 in /  0 mm
16:49 73.3 °F /  22.9 °C 57.6 °F /  14.2 °C 29.48 in /  998.2 hPa NW 14.0 mph /  22.5 km/h 11.4 mph /  18.3 km/h 58 % 0.00 in /  0 mm
16:54 72.2 °F /  22.3 °C 57.5 °F /  14.2 °C 29.49 in /  998.5 hPa NW 19.6 mph /  31.5 km/h 12.8 mph /  20.6 km/h 60 % 0.00 in /  0 mm
16:59 71.9 °F /  22.2 °C 57.7 °F /  14.3 °C 29.48 in /  998.2 hPa WNW 17.3 mph /  27.8 km/h 10.1 mph /  16.3 km/h 61 % 0.00 in /  0 mm
17:04 71.7 °F /  22.1 °C 58.0 °F /  14.4 °C 29.48 in /  998.2 hPa NW 15.0 mph /  24.1 km/h 10.8 mph /  17.4 km/h 62 % 0.00 in /  0 mm
17:09 71.9 °F /  22.2 °C 58.2 °F /  14.6 °C 29.48 in /  998.2 hPa WNW 11.5 mph /  18.5 km/h 8.5 mph /  13.7 km/h 62 % 0.00 in /  0 mm
17:14 72.5 °F /  22.5 °C 58.3 °F /  14.6 °C 29.48 in /  998.2 hPa WNW 15.0 mph /  24.1 km/h 12.8 mph /  20.6 km/h 61 % 0.00 in /  0 mm
17:19 72.5 °F /  22.5 °C 58.3 °F /  14.6 °C 29.48 in /  998.2 hPa WNW 11.5 mph /  18.5 km/h 8.1 mph /  13 km/h 61 % 0.00 in /  0 mm
17:24 73.0 °F /  22.8 °C 58.3 °F /  14.6 °C 29.47 in /  997.9 hPa NW 13.8 mph /  22.2 km/h 9.9 mph /  15.9 km/h 60 % 0.00 in /  0 mm
17:29 73.3 °F /  22.9 °C 58.1 °F /  14.5 °C 29.47 in /  997.9 hPa NW 9.2 mph /  14.8 km/h 5.8 mph /  9.3 km/h 59 % 0.00 in /  0 mm
17:34 73.5 °F /  23.1 °C 58.3 °F /  14.6 °C 29.47 in /  997.9 hPa WNW 10.4 mph /  16.7 km/h 6.1 mph /  9.8 km/h 59 % 0.00 in /  0 mm
17:39 73.4 °F /  23 °C 57.2 °F /  14 °C 29.47 in /  997.9 hPa NW 11.5 mph /  18.5 km/h 9.0 mph /  14.5 km/h 57 % 0.00 in /  0 mm
17:44 73.1 °F /  22.8 °C 57.9 °F /  14.4 °C 29.46 in /  997.5 hPa WNW 12.0 mph /  19.3 km/h 6.1 mph /  9.8 km/h 59 % 0.00 in /  0 mm
17:49 73.1 °F /  22.8 °C 57.0 °F /  13.9 °C 29.46 in /  997.5 hPa NW 11.5 mph /  18.5 km/h 6.6 mph /  10.6 km/h 57 % 0.00 in /  0 mm
17:54 73.3 °F /  22.9 °C 57.1 °F /  13.9 °C 29.46 in /  997.5 hPa North 12.0 mph /  19.3 km/h 8.9 mph /  14.3 km/h 57 % 0.00 in /  0 mm
17:59 74.1 °F /  23.4 °C 56.9 °F /  13.8 °C 29.46 in /  997.5 hPa NNW 15.0 mph /  24.1 km/h 9.1 mph /  14.6 km/h 55 % 0.00 in /  0 mm
18:04 74.1 °F /  23.4 °C 56.4 °F /  13.6 °C 29.46 in /  997.5 hPa WNW 17.3 mph /  27.8 km/h 10.5 mph /  16.9 km/h 54 % 0.00 in /  0 mm
18:09 73.6 °F /  23.1 °C 56.4 °F /  13.6 °C 29.46 in /  997.5 hPa NW 19.0 mph /  30.6 km/h 6.1 mph /  9.8 km/h 55 % 0.00 in /  0 mm
18:14 73.5 °F /  23.1 °C 56.3 °F /  13.5 °C 29.45 in /  997.2 hPa NW 10.4 mph /  16.7 km/h 8.1 mph /  13 km/h 55 % 0.00 in /  0 mm
18:19 73.3 °F /  22.9 °C 55.6 °F /  13.1 °C 29.45 in /  997.2 hPa NW 19.6 mph /  31.5 km/h 10.2 mph /  16.4 km/h 54 % 0.00 in /  0 mm
18:24 73.1 °F /  22.8 °C 55.5 °F /  13.1 °C 29.45 in /  997.2 hPa NW 13.8 mph /  22.2 km/h 10.4 mph /  16.7 km/h 54 % 0.00 in /  0 mm
18:29 73.0 °F /  22.8 °C 55.4 °F /  13 °C 29.45 in /  997.2 hPa NW 10.4 mph /  16.7 km/h 8.3 mph /  13.4 km/h 54 % 0.00 in /  0 mm
18:34 73.1 °F /  22.8 °C 55.5 °F /  13.1 °C 29.45 in /  997.2 hPa NW 17.3 mph /  27.8 km/h 7.3 mph /  11.7 km/h 54 % 0.00 in /  0 mm
18:39 73.1 °F /  22.8 °C 54.9 °F /  12.7 °C 29.45 in /  997.2 hPa WNW 18.4 mph /  29.6 km/h 8.9 mph /  14.3 km/h 53 % 0.00 in /  0 mm
18:44 73.1 °F /  22.8 °C 54.9 °F /  12.7 °C 29.45 in /  997.2 hPa WNW 13.8 mph /  22.2 km/h 11.1 mph /  17.9 km/h 53 % 0.00 in /  0 mm
18:49 73.2 °F /  22.9 °C 55.6 °F /  13.1 °C 29.44 in /  996.8 hPa NW 12.0 mph /  19.3 km/h 8.9 mph /  14.3 km/h 54 % 0.00 in /  0 mm
18:54 73.4 °F /  23 °C 55.7 °F /  13.2 °C 29.45 in /  997.2 hPa NW 11.5 mph /  18.5 km/h 7.2 mph /  11.6 km/h 54 % 0.00 in /  0 mm
18:59 73.4 °F /  23 °C 55.2 °F /  12.9 °C 29.44 in /  996.8 hPa NW 19.6 mph /  31.5 km/h 9.3 mph /  15 km/h 53 % 0.00 in /  0 mm
19:04 73.2 °F /  22.9 °C 55.6 °F /  13.1 °C 29.45 in /  997.2 hPa NW 12.7 mph /  20.4 km/h 7.6 mph /  12.2 km/h 54 % 0.00 in /  0 mm
19:09 73.0 °F /  22.8 °C 55.4 °F /  13 °C 29.44 in /  996.8 hPa NW 11.5 mph /  18.5 km/h 7.6 mph /  12.2 km/h 54 % 0.00 in /  0 mm
19:14 73.0 °F /  22.8 °C 55.4 °F /  13 °C 29.45 in /  997.2 hPa NW 11.5 mph /  18.5 km/h 8.0 mph /  12.9 km/h 54 % 0.00 in /  0 mm
19:19 73.1 °F /  22.8 °C 54.9 °F /  12.7 °C 29.45 in /  997.2 hPa WNW 15.0 mph /  24.1 km/h 7.0 mph /  11.3 km/h 53 % 0.00 in /  0 mm
19:24 73.0 °F /  22.8 °C 54.9 °F /  12.7 °C 29.45 in /  997.2 hPa WNW 12.0 mph /  19.3 km/h 8.9 mph /  14.3 km/h 53 % 0.00 in /  0 mm
19:29 73.0 °F /  22.8 °C 54.9 °F /  12.7 °C 29.45 in /  997.2 hPa WNW 19.6 mph /  31.5 km/h 11.5 mph /  18.5 km/h 53 % 0.00 in /  0 mm
19:34 73.3 °F /  22.9 °C 54.6 °F /  12.6 °C 29.45 in /  997.2 hPa NW 19.6 mph /  31.5 km/h 9.4 mph /  15.1 km/h 52 % 0.00 in /  0 mm
19:39 73.0 °F /  22.8 °C 54.9 °F /  12.7 °C 29.45 in /  997.2 hPa NW 10.4 mph /  16.7 km/h 7.6 mph /  12.2 km/h 53 % 0.00 in /  0 mm
19:44 72.8 °F /  22.7 °C 54.7 °F /  12.6 °C 29.45 in /  997.2 hPa WNW 17.3 mph /  27.8 km/h 10.2 mph /  16.4 km/h 53 % 0.00 in /  0 mm
19:49 72.6 °F /  22.6 °C 54.5 °F /  12.5 °C 29.45 in /  997.2 hPa NW 12.7 mph /  20.4 km/h 8.5 mph /  13.7 km/h 53 % 0.00 in /  0 mm
19:54 72.5 °F /  22.5 °C 54.4 °F /  12.4 °C 29.45 in /  997.2 hPa NW 13.8 mph /  22.2 km/h 8.5 mph /  13.7 km/h 53 % 0.00 in /  0 mm
19:59 72.4 °F /  22.4 °C 54.3 °F /  12.4 °C 29.44 in /  996.8 hPa NW 19.0 mph /  30.6 km/h 14.3 mph /  23 km/h 53 % 0.00 in /  0 mm
20:04 72.4 °F /  22.4 °C 54.3 °F /  12.4 °C 29.44 in /  996.8 hPa NW 11.5 mph /  18.5 km/h 6.7 mph /  10.8 km/h 53 % 0.00 in /  0 mm
20:09 72.3 °F /  22.4 °C 53.7 °F /  12.1 °C 29.44 in /  996.8 hPa NW 15.0 mph /  24.1 km/h 8.8 mph /  14.2 km/h 52 % 0.00 in /  0 mm
20:14 72.2 °F /  22.3 °C 53.6 °F /  12 °C 29.44 in /  996.8 hPa NW 10.4 mph /  16.7 km/h 5.7 mph /  9.2 km/h 52 % 0.00 in /  0 mm
20:19 72.1 °F /  22.3 °C 53.5 °F /  11.9 °C 29.44 in /  996.8 hPa NW 11.5 mph /  18.5 km/h 7.1 mph /  11.4 km/h 52 % 0.00 in /  0 mm
20:24 71.9 °F /  22.2 °C 53.3 °F /  11.8 °C 29.44 in /  996.8 hPa NW 9.0 mph /  14.5 km/h 5.6 mph /  9 km/h 52 % 0.00 in /  0 mm
20:29 71.8 °F /  22.1 °C 53.7 °F /  12.1 °C 29.44 in /  996.8 hPa NW 8.1 mph /  13 km/h 5.3 mph /  8.5 km/h 53 % 0.00 in /  0 mm
20:34 71.7 °F /  22.1 °C 53.7 °F /  12.1 °C 29.44 in /  996.8 hPa NW 8.1 mph /  13 km/h 5.1 mph /  8.2 km/h 53 % 0.00 in /  0 mm
20:39 71.5 °F /  21.9 °C 53.5 °F /  11.9 °C 29.44 in /  996.8 hPa NW 8.1 mph /  13 km/h 5.2 mph /  8.4 km/h 53 % 0.00 in /  0 mm
20:44 71.4 °F /  21.9 °C 53.4 °F /  11.9 °C 29.44 in /  996.8 hPa NW 10.4 mph /  16.7 km/h 7.5 mph /  12.1 km/h 53 % 0.00 in /  0 mm
20:49 71.4 °F /  21.9 °C 53.4 °F /  11.9 °C 29.44 in /  996.8 hPa NW 5.8 mph /  9.3 km/h 4.5 mph /  7.2 km/h 53 % 0.00 in /  0 mm
20:54 71.1 °F /  21.7 °C 53.1 °F /  11.7 °C 29.44 in /  996.8 hPa NW 6.0 mph /  9.7 km/h 5.2 mph /  8.4 km/h 53 % 0.00 in /  0 mm
20:59 70.9 °F /  21.6 °C 53.4 °F /  11.9 °C 29.44 in /  996.8 hPa NW 6.9 mph /  11.1 km/h 4.1 mph /  6.6 km/h 54 % 0.00 in /  0 mm
21:04 70.7 °F /  21.5 °C 53.2 °F /  11.8 °C 29.44 in /  996.8 hPa NW 6.9 mph /  11.1 km/h 4.3 mph /  6.9 km/h 54 % 0.00 in /  0 mm
21:09 70.7 °F /  21.5 °C 53.2 °F /  11.8 °C 29.44 in /  996.8 hPa NW 12.7 mph /  20.4 km/h 8.1 mph /  13 km/h 54 % 0.00 in /  0 mm
21:14 70.9 °F /  21.6 °C 53.4 °F /  11.9 °C 29.44 in /  996.8 hPa NW 16.1 mph /  25.9 km/h 6.9 mph /  11.1 km/h 54 % 0.00 in /  0 mm
21:19 70.9 °F /  21.6 °C 53.9 °F /  12.2 °C 29.44 in /  996.8 hPa WNW 13.8 mph /  22.2 km/h 6.5 mph /  10.5 km/h 55 % 0.00 in /  0 mm
21:24 70.6 °F /  21.4 °C 53.6 °F /  12 °C 29.44 in /  996.8 hPa WNW 9.2 mph /  14.8 km/h 5.7 mph /  9.2 km/h 55 % 0.00 in /  0 mm
21:29 70.1 °F /  21.2 °C 54.6 °F /  12.6 °C 29.44 in /  996.8 hPa WNW 13.8 mph /  22.2 km/h 10.2 mph /  16.4 km/h 58 % 0.00 in /  0 mm
21:34 69.4 °F /  20.8 °C 55.8 °F /  13.2 °C 29.45 in /  997.2 hPa WNW 17.0 mph /  27.4 km/h 12.1 mph /  19.5 km/h 62 % 0.00 in /  0 mm
21:39 68.9 °F /  20.5 °C 56.2 °F /  13.4 °C 29.45 in /  997.2 hPa WNW 17.3 mph /  27.8 km/h 9.2 mph /  14.8 km/h 64 % 0.00 in /  0 mm
21:44 68.4 °F /  20.2 °C 56.6 °F /  13.7 °C 29.45 in /  997.2 hPa West 17.0 mph /  27.4 km/h 10.6 mph /  17.1 km/h 66 % 0.00 in /  0 mm
21:49 68.0 °F /  20 °C 56.6 °F /  13.7 °C 29.45 in /  997.2 hPa West 11.5 mph /  18.5 km/h 11.6 mph /  18.7 km/h 67 % 0.00 in /  0 mm
21:54 67.6 °F /  19.8 °C 56.7 °F /  13.7 °C 29.45 in /  997.2 hPa WNW 18.4 mph /  29.6 km/h 12.7 mph /  20.4 km/h 68 % 0.00 in /  0 mm
21:59 67.4 °F /  19.7 °C 56.9 °F /  13.8 °C 29.45 in /  997.2 hPa WNW 17.3 mph /  27.8 km/h 10.3 mph /  16.6 km/h 69 % 0.00 in /  0 mm
22:04 67.2 °F /  19.6 °C 57.1 °F /  13.9 °C 29.45 in /  997.2 hPa West 15.0 mph /  24.1 km/h 9.5 mph /  15.3 km/h 70 % 0.00 in /  0 mm
22:09 66.9 °F /  19.4 °C 56.8 °F /  13.8 °C 29.45 in /  997.2 hPa WNW 13.8 mph /  22.2 km/h 7.2 mph /  11.6 km/h 70 % 0.00 in /  0 mm
22:14 66.7 °F /  19.3 °C 57.0 °F /  13.9 °C 29.45 in /  997.2 hPa WNW 11.5 mph /  18.5 km/h 8.5 mph /  13.7 km/h 71 % 0.00 in /  0 mm
22:19 66.5 °F /  19.2 °C 56.8 °F /  13.8 °C 29.45 in /  997.2 hPa NW 8.1 mph /  13 km/h 6.1 mph /  9.8 km/h 71 % 0.00 in /  0 mm
22:24 66.2 °F /  19 °C 56.5 °F /  13.6 °C 29.45 in /  997.2 hPa NW 7.0 mph /  11.3 km/h 5.5 mph /  8.9 km/h 71 % 0.00 in /  0 mm
22:29 66.1 °F /  18.9 °C 56.8 °F /  13.8 °C 29.45 in /  997.2 hPa WNW 15.0 mph /  24.1 km/h 6.1 mph /  9.8 km/h 72 % 0.00 in /  0 mm
22:34 66.0 °F /  18.9 °C 56.7 °F /  13.7 °C 29.45 in /  997.2 hPa NW 16.1 mph /  25.9 km/h 8.0 mph /  12.9 km/h 72 % 0.00 in /  0 mm
22:39 65.7 °F /  18.7 °C 56.4 °F /  13.6 °C 29.45 in /  997.2 hPa WNW 18.4 mph /  29.6 km/h 8.6 mph /  13.8 km/h 72 % 0.00 in /  0 mm
22:44 65.5 °F /  18.6 °C 56.2 °F /  13.4 °C 29.45 in /  997.2 hPa NW 11.5 mph /  18.5 km/h 10.8 mph /  17.4 km/h 72 % 0.00 in /  0 mm
22:45 65.5 °F /  18.6 °C 56.2 °F /  13.4 °C 29.45 in /  997.2 hPa NW 17.3 mph /  27.8 km/h 10.8 mph /  17.4 km/h 72 % 0.00 in /  0 mm
22:54 65.3 °F /  18.5 °C 56.0 °F /  13.3 °C 29.45 in /  997.2 hPa NW 17.3 mph /  27.8 km/h 13.0 mph /  20.9 km/h 72 % 0.00 in /  0 mm
22:59 65.2 °F /  18.4 °C 55.9 °F /  13.3 °C 29.45 in /  997.2 hPa WNW 12.7 mph /  20.4 km/h 11.4 mph /  18.3 km/h 72 % 0.00 in /  0 mm
23:04 65.0 °F /  18.3 °C 55.8 °F /  13.2 °C 29.45 in /  997.2 hPa NW 11.5 mph /  18.5 km/h 7.3 mph /  11.7 km/h 72 % 0.00 in /  0 mm
23:09 64.8 °F /  18.2 °C 55.9 °F /  13.3 °C 29.44 in /  996.8 hPa WNW 12.0 mph /  19.3 km/h 7.8 mph /  12.6 km/h 73 % 0.00 in /  0 mm
23:14 64.6 °F /  18.1 °C 55.7 °F /  13.2 °C 29.44 in /  996.8 hPa WNW 11.5 mph /  18.5 km/h 6.8 mph /  10.9 km/h 73 % 0.00 in /  0 mm
23:19 64.4 °F /  18 °C 55.6 °F /  13.1 °C 29.43 in /  996.5 hPa WNW 11.5 mph /  18.5 km/h 8.4 mph /  13.5 km/h 73 % 0.00 in /  0 mm
23:24 64.3 °F /  17.9 °C 55.5 °F /  13.1 °C 29.43 in /  996.5 hPa WNW 13.8 mph /  22.2 km/h 6.8 mph /  10.9 km/h 73 % 0.00 in /  0 mm
23:29 64.1 °F /  17.8 °C 55.3 °F /  12.9 °C 29.43 in /  996.5 hPa NW 10.4 mph /  16.7 km/h 7.5 mph /  12.1 km/h 73 % 0.00 in /  0 mm
23:34 64.0 °F /  17.8 °C 55.2 °F /  12.9 °C 29.42 in /  996.2 hPa NNW 10.4 mph /  16.7 km/h 9.1 mph /  14.6 km/h 73 % 0.00 in /  0 mm
23:39 63.9 °F /  17.7 °C 55.1 °F /  12.8 °C 29.42 in /  996.2 hPa NW 14.0 mph /  22.5 km/h 10.7 mph /  17.2 km/h 73 % 0.00 in /  0 mm
23:44 63.8 °F /  17.7 °C 55.0 °F /  12.8 °C 29.42 in /  996.2 hPa WNW 8.1 mph /  13 km/h 5.8 mph /  9.3 km/h 73 % 0.00 in /  0 mm
23:49 63.7 °F /  17.6 °C 54.9 °F /  12.7 °C 29.42 in /  996.2 hPa NW 9.2 mph /  14.8 km/h 6.3 mph /  10.1 km/h 73 % 0.00 in /  0 mm
23:54 63.7 °F /  17.6 °C 54.9 °F /  12.7 °C 29.42 in /  996.2 hPa NW 11.5 mph /  18.5 km/h 8.1 mph /  13 km/h 73 % 0.00 in /  0 mm
23:59 63.6 °F /  17.6 °C 54.8 °F /  12.7 °C 29.42 in /  996.2 hPa NW 9.2 mph /  14.8 km/h 7.9 mph /  12.7 km/h 73 % 0.00 in /  0 mm
Ararat Weather
Compliments of Weather Underground - 2.25 mb
Click here to send mail.


ABOUT

Live weather data from Ararat, Victoria, Australia, 3377
Data uploaded from Cumulus every 5 minutes to Weather Underground.
This site then downloads the raw data for formatting and display.
Metric and imperial data can be displayed. Graphs and historical data available.
Includes Sun and Moon times and rain image live from BOM.

Check out Ararat Weather on Facebook, Twitter and Google +

Help support ongoing costs by checking out the ads





Follow @AraratWeather